createdAt,value
2023-03-02T00:03:11.202Z,-4.17
2023-03-02T00:08:17.148Z,-4.09
2023-03-02T00:13:19.852Z,-4.05
2023-03-02T00:18:22.527Z,-4.09
2023-03-02T00:23:25.180Z,-4.09
2023-03-02T00:28:27.870Z,-4.13
2023-03-02T00:33:31.091Z,-4.01
2023-03-02T00:38:33.683Z,-4.02
2023-03-02T00:43:36.341Z,-4.09
2023-03-02T00:48:39.265Z,-4.20
2023-03-02T00:53:41.988Z,-4.32
2023-03-02T00:58:44.823Z,-4.47
2023-03-02T01:03:47.865Z,-4.57
2023-03-02T01:08:51.078Z,-4.49
2023-03-02T01:13:53.819Z,-4.55
2023-03-02T01:18:56.467Z,-4.50
2023-03-02T01:23:59.268Z,-4.73
2023-03-02T01:29:02.096Z,-4.95
2023-03-02T01:34:04.989Z,-4.94
2023-03-02T01:39:07.569Z,-5.03
2023-03-02T01:44:35.241Z,-5.08
2023-03-02T01:49:38.238Z,-5.13
2023-03-02T01:54:44.718Z,-5.04
2023-03-02T01:59:49.345Z,-5.03
2023-03-02T02:04:53.323Z,-4.98
2023-03-02T02:09:57.336Z,-4.90
2023-03-02T02:15:01.545Z,-4.84
2023-03-02T02:20:24.348Z,-4.72
2023-03-02T02:25:48.206Z,-4.82
2023-03-02T02:30:57.103Z,-4.78
2023-03-02T02:36:06.184Z,-4.76
2023-03-02T02:41:17.567Z,-4.93
2023-03-02T02:46:20.929Z,-4.93
2023-03-02T02:51:29.696Z,-4.99
2023-03-02T02:56:36.239Z,-5.02
2023-03-02T03:01:40.288Z,-5.15
2023-03-02T03:06:51.420Z,-5.13
2023-03-02T03:12:13.604Z,-5.30
2023-03-02T03:17:16.616Z,-5.38
2023-03-02T03:22:26.391Z,-5.36
2023-03-02T03:27:29.344Z,-5.42
2023-03-02T03:32:35.554Z,-5.46
2023-03-02T03:37:42.104Z,-5.41
2023-03-02T03:42:45.910Z,-5.41
2023-03-02T03:47:49.085Z,-5.32
2023-03-02T03:52:52.259Z,-5.21
2023-03-02T03:58:00.622Z,-5.28
2023-03-02T04:03:03.670Z,-5.37
2023-03-02T04:08:08.466Z,-5.24
2023-03-02T04:13:11.807Z,-5.21
2023-03-02T04:18:15.548Z,-5.07
2023-03-02T04:23:18.599Z,-5.00
2023-03-02T04:28:22.101Z,-5.19
2023-03-02T04:33:25.492Z,-5.16
2023-03-02T04:38:30.282Z,-5.13
2023-03-02T04:43:33.958Z,-5.11
2023-03-02T04:48:36.586Z,-4.96
2023-03-02T04:53:39.263Z,-5.12
2023-03-02T04:58:41.944Z,-4.85
2023-03-02T05:03:46.301Z,-4.73
2023-03-02T05:08:49.425Z,-4.78
2023-03-02T05:13:55.246Z,-4.82
2023-03-02T05:18:59.371Z,-4.70
2023-03-02T05:24:03.355Z,-4.71
2023-03-02T05:29:06.448Z,-4.29
2023-03-02T05:34:11.433Z,-4.22
2023-03-02T05:39:14.271Z,-3.93
2023-03-02T05:44:16.959Z,-3.96
2023-03-02T05:49:19.622Z,-3.86
2023-03-02T05:54:22.434Z,-3.94
2023-03-02T05:59:25.121Z,-3.70
2023-03-02T06:04:27.745Z,-3.48
2023-03-02T06:09:30.324Z,-3.47
2023-03-02T06:14:33.235Z,-3.45
2023-03-02T06:19:36.022Z,-3.41
2023-03-02T06:24:38.724Z,-3.08
2023-03-02T06:29:41.597Z,-2.72
2023-03-02T06:34:44.530Z,-2.61
2023-03-02T06:39:47.280Z,-2.60
2023-03-02T06:44:51.445Z,-1.99
2023-03-02T06:49:54.109Z,-1.94
2023-03-02T06:54:56.741Z,-1.62
2023-03-02T07:00:01.103Z,-1.59
2023-03-02T07:05:04.049Z,-1.57
2023-03-02T07:10:08.105Z,-1.52
2023-03-02T07:15:12.498Z,-1.46
2023-03-02T07:20:17.193Z,-1.38
2023-03-02T07:25:19.879Z,-1.56
2023-03-02T07:30:22.572Z,-1.80
2023-03-02T07:35:25.366Z,-1.59
2023-03-02T07:40:27.989Z,-1.53
2023-03-02T07:45:30.748Z,-2.02
2023-03-02T07:50:33.911Z,-1.80
2023-03-02T07:55:41.135Z,-1.59
2023-03-02T08:00:43.688Z,-1.87
2023-03-02T08:05:46.395Z,-1.64
2023-03-02T08:10:50.415Z,-1.56
2023-03-02T08:16:00.070Z,-1.54
2023-03-02T08:21:03.202Z,-1.33
2023-03-02T08:26:05.808Z,-1.78
2023-03-02T08:31:09.299Z,-1.42
2023-03-02T08:36:17.995Z,-1.52
2023-03-02T08:41:23.187Z,-1.34
2023-03-02T08:46:25.825Z,-1.57
2023-03-02T08:51:29.074Z,-1.72
2023-03-02T08:56:35.077Z,-1.41
2023-03-02T09:01:39.009Z,-1.27
2023-03-02T09:06:44.190Z,-0.88
2023-03-02T09:11:47.054Z,-0.78
2023-03-02T09:16:49.809Z,-0.74
2023-03-02T09:21:52.548Z,-0.97
2023-03-02T09:26:55.220Z,-0.89
2023-03-02T09:31:57.980Z,-0.83
2023-03-02T09:37:00.658Z,-0.54
2023-03-02T09:42:15.323Z,-0.38
2023-03-02T09:47:41.204Z,-0.41
2023-03-02T09:53:01.805Z,-0.07
2023-03-02T09:58:16.066Z,-0.21
2023-03-02T10:03:35.055Z,-0.21
2023-03-02T10:08:39.321Z,-0.04
2023-03-02T10:13:47.825Z,0.08
2023-03-02T10:19:29.725Z,0.25
2023-03-02T10:24:38.360Z,-0.13
2023-03-02T10:29:50.003Z,0.01
2023-03-02T10:34:53.557Z,-0.07
2023-03-02T10:39:57.025Z,-0.10
2023-03-02T10:45:05.940Z,-0.06
2023-03-02T10:50:24.234Z,-0.09
2023-03-02T10:55:27.023Z,-0.06
2023-03-02T11:00:31.491Z,-0.08
2023-03-02T11:05:37.357Z,0.02
2023-03-02T11:10:51.460Z,-0.13
2023-03-02T11:15:59.766Z,-0.29
2023-03-02T11:21:11.794Z,-0.37
2023-03-02T11:26:28.386Z,-0.20
2023-03-02T11:31:39.784Z,-0.56
2023-03-02T11:36:44.784Z,-0.64
2023-03-02T11:41:47.436Z,-0.12
2023-03-02T11:47:01.504Z,0.18
2023-03-02T11:52:04.481Z,-0.02
2023-03-02T11:57:28.866Z,-0.29
2023-03-02T12:02:31.499Z,-0.46
2023-03-02T12:07:34.282Z,-0.35
2023-03-02T12:12:41.961Z,-0.45
2023-03-02T12:17:44.672Z,-0.53
2023-03-02T12:22:47.372Z,-0.71
2023-03-02T12:27:53.629Z,-0.69
2023-03-02T12:33:19.729Z,-0.86
2023-03-02T12:38:32.779Z,-0.88
2023-03-02T12:43:37.815Z,-1.11
2023-03-02T12:49:12.115Z,-1.75
2023-03-02T12:54:20.705Z,-1.56
2023-03-02T12:59:28.724Z,-1.37
2023-03-02T13:04:31.559Z,-1.56
2023-03-02T13:09:34.421Z,-1.40
2023-03-02T13:14:41.381Z,-1.75
2023-03-02T13:19:44.073Z,-1.85
2023-03-02T13:24:55.563Z,-1.78
2023-03-02T13:30:11.710Z,-1.66
2023-03-02T13:35:26.564Z,-1.64
2023-03-02T13:40:51.564Z,-1.57
2023-03-02T13:45:58.397Z,-1.90
2023-03-02T13:51:04.261Z,-2.07
2023-03-02T13:56:08.526Z,-1.98
2023-03-02T14:01:13.156Z,-2.37
2023-03-02T14:06:18.791Z,-2.54
2023-03-02T14:11:21.576Z,-2.54
2023-03-02T14:16:24.603Z,-2.50
2023-03-02T14:21:27.872Z,-2.42
2023-03-02T14:26:33.379Z,-2.24
2023-03-02T14:31:36.260Z,-2.27
2023-03-02T14:36:40.089Z,-2.30
2023-03-02T14:41:52.940Z,-2.14
2023-03-02T14:46:57.684Z,-2.25
2023-03-02T14:52:03.216Z,-2.39
2023-03-02T14:57:08.093Z,-2.69
2023-03-02T15:02:24.308Z,-2.74
2023-03-02T15:07:28.607Z,-2.80
2023-03-02T15:12:31.200Z,-2.90
2023-03-02T15:17:33.882Z,-2.69
2023-03-02T15:22:36.473Z,-2.71
2023-03-02T15:27:39.528Z,-2.73
2023-03-02T15:32:42.154Z,-2.65
2023-03-02T15:37:45.221Z,-2.66
2023-03-02T15:42:48.150Z,-2.73
2023-03-02T15:47:50.826Z,-2.80
2023-03-02T15:52:54.394Z,-2.64
2023-03-02T15:57:58.279Z,-2.55
2023-03-02T16:03:01.158Z,-2.26
2023-03-02T16:08:04.036Z,-2.14
2023-03-02T16:13:07.185Z,-2.45
2023-03-02T16:18:11.104Z,-2.23
2023-03-02T16:23:15.979Z,-2.37
2023-03-02T16:28:19.797Z,-2.35
2023-03-02T16:33:22.471Z,-2.12
2023-03-02T16:38:25.329Z,-2.16
2023-03-02T16:43:28.089Z,-2.08
2023-03-02T16:48:30.684Z,-1.98
2023-03-02T16:53:34.642Z,-2.17
2023-03-02T16:58:39.832Z,-2.28
2023-03-02T17:03:43.199Z,-2.40
2023-03-02T17:08:45.886Z,-2.20
2023-03-02T17:13:48.808Z,-2.02
2023-03-02T17:18:51.452Z,-1.86
2023-03-02T17:23:54.097Z,-1.77
2023-03-02T17:28:56.737Z,-1.70
2023-03-02T17:33:59.439Z,-1.74
2023-03-02T17:39:02.396Z,-1.71
2023-03-02T17:44:06.126Z,-1.67
2023-03-02T17:49:08.732Z,-1.63
2023-03-02T17:54:11.622Z,-1.62
2023-03-02T17:59:14.317Z,-1.45
2023-03-02T18:04:21.075Z,-1.46
2023-03-02T18:09:23.795Z,-1.27
2023-03-02T18:14:28.580Z,-1.26
2023-03-02T18:19:31.883Z,-1.17
2023-03-02T18:24:34.672Z,-1.24
2023-03-02T18:29:37.430Z,-1.21
2023-03-02T18:34:40.372Z,-1.13
2023-03-02T18:39:43.917Z,-1.19
2023-03-02T18:44:47.009Z,-1.27
2023-03-02T18:49:50.868Z,-1.15
2023-03-02T18:55:08.609Z,-1.17
2023-03-02T19:00:27.591Z,-1.26
2023-03-02T19:05:33.558Z,-1.19
2023-03-02T19:10:42.505Z,-1.01
2023-03-02T19:15:47.299Z,-0.98
2023-03-02T19:20:51.710Z,-1.06
2023-03-02T19:25:57.562Z,-1.16
2023-03-02T19:31:06.983Z,-1.09
2023-03-02T19:36:10.100Z,-1.17
2023-03-02T19:41:21.594Z,-1.10
2023-03-02T19:46:26.201Z,-1.01
2023-03-02T19:51:28.994Z,-1.19
2023-03-02T19:56:34.980Z,-1.06
2023-03-02T20:01:37.853Z,-1.13
2023-03-02T20:06:44.158Z,-1.19
2023-03-02T20:11:47.715Z,-1.07
2023-03-02T20:16:51.705Z,-1.05
2023-03-02T20:21:54.368Z,-1.04
2023-03-02T20:26:57.090Z,-1.03
2023-03-02T20:32:02.135Z,-0.96
2023-03-02T20:37:06.035Z,-1.18
2023-03-02T20:42:10.288Z,-1.13
2023-03-02T20:47:15.730Z,-0.94
2023-03-02T20:52:18.633Z,-0.95
2023-03-02T20:57:22.288Z,-1.08
2023-03-02T21:02:24.914Z,-1.19
2023-03-02T21:07:27.725Z,-1.14
2023-03-02T21:12:30.715Z,-0.93
2023-03-02T21:17:33.491Z,-1.09
2023-03-02T21:22:36.162Z,-1.09
2023-03-02T21:27:40.295Z,-1.08
2023-03-02T21:32:45.667Z,-1.47
2023-03-02T21:37:50.829Z,-1.71
2023-03-02T21:42:54.321Z,-1.85
2023-03-02T21:47:57.040Z,-1.87
2023-03-02T21:52:59.700Z,-1.98
2023-03-02T21:58:02.503Z,-1.76
2023-03-02T22:03:05.844Z,-1.70
2023-03-02T22:08:13.502Z,-1.58
2023-03-02T22:13:26.579Z,-2.05
2023-03-02T22:18:29.550Z,-2.14
2023-03-02T22:23:32.140Z,-2.41
2023-03-02T22:28:40.739Z,-2.46
2023-03-02T22:33:43.425Z,-2.57
2023-03-02T22:38:46.097Z,-2.65
2023-03-02T22:43:49.633Z,-2.61
2023-03-02T22:48:53.438Z,-2.66
2023-03-02T22:54:00.527Z,-2.72
2023-03-02T22:59:25.930Z,-2.44
2023-03-02T23:04:35.557Z,-2.52
2023-03-02T23:09:38.110Z,-2.17
2023-03-02T23:15:01.003Z,-2.23
2023-03-02T23:20:06.420Z,-2.05
2023-03-02T23:25:09.598Z,-2.00
2023-03-02T23:30:12.441Z,-1.89
2023-03-02T23:35:15.169Z,-1.78
2023-03-02T23:40:17.937Z,-1.79
2023-03-02T23:45:20.636Z,-1.83
2023-03-02T23:50:23.238Z,-1.68
2023-03-02T23:55:25.840Z,-1.73
